sensor_id;sensor_type;location;lat;lon;timestamp;temperature;humidity
45535;DHT22;35892;48.798;9.698;2022-12-05T00:01:42;4.40;99.90
45535;DHT22;35892;48.798;9.698;2022-12-05T00:04:13;4.40;99.90
45535;DHT22;35892;48.798;9.698;2022-12-05T00:06:41;4.40;99.90
45535;DHT22;35892;48.798;9.698;2022-12-05T00:09:09;4.30;99.90
45535;DHT22;35892;48.798;9.698;2022-12-05T00:11:38;4.40;99.90
45535;DHT22;35892;48.798;9.698;2022-12-05T00:14:08;4.40;99.90
45535;DHT22;35892;48.798;9.698;2022-12-05T00:16:39;4.30;99.90
45535;DHT22;35892;48.798;9.698;2022-12-05T00:19:12;4.20;99.90
45535;DHT22;35892;48.798;9.698;2022-12-05T00:21:39;4.20;99.90
45535;DHT22;35892;48.798;9.698;2022-12-05T00:24:10;4.20;99.90
45535;DHT22;35892;48.798;9.698;2022-12-05T00:26:38;4.20;99.90
45535;DHT22;35892;48.798;9.698;2022-12-05T00:29:07;4.30;99.90
45535;DHT22;35892;48.798;9.698;2022-12-05T00:31:34;4.40;99.90
45535;DHT22;35892;48.798;9.698;2022-12-05T00:34:02;4.40;99.90
45535;DHT22;35892;48.798;9.698;2022-12-05T00:36:31;4.30;99.90
45535;DHT22;35892;48.798;9.698;2022-12-05T00:39:04;4.40;99.90
45535;DHT22;35892;48.798;9.698;2022-12-05T00:41:33;4.20;99.90
45535;DHT22;35892;48.798;9.698;2022-12-05T00:44:03;4.10;99.90
45535;DHT22;35892;48.798;9.698;2022-12-05T00:46:33;4.20;99.90
45535;DHT22;35892;48.798;9.698;2022-12-05T00:49:02;4.30;99.90
45535;DHT22;35892;48.798;9.698;2022-12-05T00:51:35;4.30;99.90
45535;DHT22;35892;48.798;9.698;2022-12-05T00:54:06;4.20;99.90
45535;DHT22;35892;48.798;9.698;2022-12-05T00:56:34;4.20;99.90
45535;DHT22;35892;48.798;9.698;2022-12-05T00:59:02;4.10;99.90
45535;DHT22;35892;48.798;9.698;2022-12-05T01:01:39;4.10;99.90
45535;DHT22;35892;48.798;9.698;2022-12-05T01:04:14;4.20;99.90
45535;DHT22;35892;48.798;9.698;2022-12-05T01:06:41;4.20;99.90
45535;DHT22;35892;48.798;9.698;2022-12-05T01:09:13;4.10;99.90
45535;DHT22;35892;48.798;9.698;2022-12-05T01:11:41;4.10;99.90
45535;DHT22;35892;48.798;9.698;2022-12-05T01:14:10;4.10;99.90
45535;DHT22;35892;48.798;9.698;2022-12-05T01:16:41;4.20;99.90
45535;DHT22;35892;48.798;9.698;2022-12-05T01:19:12;4.20;99.90
45535;DHT22;35892;48.798;9.698;2022-12-05T01:21:39;4.20;99.90
45535;DHT22;35892;48.798;9.698;2022-12-05T01:24:07;4.20;99.90
45535;DHT22;35892;48.798;9.698;2022-12-05T01:26:34;4.20;99.90
45535;DHT22;35892;48.798;9.698;2022-12-05T01:29:01;4.30;99.90
45535;DHT22;35892;48.798;9.698;2022-12-05T01:31:34;4.20;99.90
45535;DHT22;35892;48.798;9.698;2022-12-05T01:34:04;4.20;99.90
45535;DHT22;35892;48.798;9.698;2022-12-05T01:36:33;4.10;99.90
45535;DHT22;35892;48.798;9.698;2022-12-05T01:39:00;4.10;99.90
45535;DHT22;35892;48.798;9.698;2022-12-05T01:41:30;4.20;99.90
45535;DHT22;35892;48.798;9.698;2022-12-05T01:46:54;4.20;99.90
45535;DHT22;35892;48.798;9.698;2022-12-05T01:49:36;4.10;99.90
45535;DHT22;35892;48.798;9.698;2022-12-05T01:52:08;4.10;99.90
45535;DHT22;35892;48.798;9.698;2022-12-05T01:54:35;4.00;99.90
45535;DHT22;35892;48.798;9.698;2022-12-05T01:57:12;4.00;99.90
45535;DHT22;35892;48.798;9.698;2022-12-05T01:59:46;4.00;99.90
45535;DHT22;35892;48.798;9.698;2022-12-05T02:02:14;4.00;99.90
45535;DHT22;35892;48.798;9.698;2022-12-05T02:04:57;4.00;99.90
45535;DHT22;35892;48.798;9.698;2022-12-05T02:07:28;4.00;99.90
45535;DHT22;35892;48.798;9.698;2022-12-05T02:10:00;3.90;99.90
45535;DHT22;35892;48.798;9.698;2022-12-05T02:12:31;4.00;99.90
45535;DHT22;35892;48.798;9.698;2022-12-05T02:23:49;4.00;99.90
45535;DHT22;35892;48.798;9.698;2022-12-05T02:32:19;4.30;99.90
45535;DHT22;35892;48.798;9.698;2022-12-05T02:41:07;4.40;99.90
45535;DHT22;35892;48.798;9.698;2022-12-05T02:43:37;4.40;99.90
45535;DHT22;35892;48.798;9.698;2022-12-05T02:46:16;4.30;99.90
45535;DHT22;35892;48.798;9.698;2022-12-05T02:48:48;4.20;99.90
45535;DHT22;35892;48.798;9.698;2022-12-05T02:51:20;4.20;99.90
45535;DHT22;35892;48.798;9.698;2022-12-05T02:53:55;4.20;99.90
45535;DHT22;35892;48.798;9.698;2022-12-05T02:56:26;4.10;99.90
45535;DHT22;35892;48.798;9.698;2022-12-05T02:58:56;4.10;99.90
45535;DHT22;35892;48.798;9.698;2022-12-05T03:01:27;4.10;99.90
45535;DHT22;35892;48.798;9.698;2022-12-05T03:03:57;4.00;99.90
45535;DHT22;35892;48.798;9.698;2022-12-05T03:06:40;4.00;99.90
45535;DHT22;35892;48.798;9.698;2022-12-05T03:09:15;4.00;99.90
45535;DHT22;35892;48.798;9.698;2022-12-05T03:11:55;4.00;99.90
45535;DHT22;35892;48.798;9.698;2022-12-05T03:14:38;4.10;99.90
45535;DHT22;35892;48.798;9.698;2022-12-05T03:17:12;4.10;99.90
45535;DHT22;35892;48.798;9.698;2022-12-05T03:19:49;4.10;99.90
45535;DHT22;35892;48.798;9.698;2022-12-05T03:22:29;4.00;99.90
45535;DHT22;35892;48.798;9.698;2022-12-05T03:24:58;4.00;99.90
45535;DHT22;35892;48.798;9.698;2022-12-05T03:30:19;4.10;99.90
45535;DHT22;35892;48.798;9.698;2022-12-05T03:32:54;4.10;99.90
45535;DHT22;35892;48.798;9.698;2022-12-05T03:40:51;4.00;99.90
45535;DHT22;35892;48.798;9.698;2022-12-05T03:46:04;4.00;99.90
45535;DHT22;35892;48.798;9.698;2022-12-05T03:48:36;4.00;99.90
45535;DHT22;35892;48.798;9.698;2022-12-05T03:51:08;4.10;99.90
45535;DHT22;35892;48.798;9.698;2022-12-05T03:53:58;4.10;99.90
45535;DHT22;35892;48.798;9.698;2022-12-05T03:56:34;4.10;99.90
45535;DHT22;35892;48.798;9.698;2022-12-05T03:59:28;4.20;99.90
45535;DHT22;35892;48.798;9.698;2022-12-05T04:02:02;4.20;99.90
45535;DHT22;35892;48.798;9.698;2022-12-05T04:04:40;4.20;99.90
45535;DHT22;35892;48.798;9.698;2022-12-05T04:07:14;4.20;99.90
45535;DHT22;35892;48.798;9.698;2022-12-05T04:09:52;4.10;99.90
45535;DHT22;35892;48.798;9.698;2022-12-05T04:12:26;4.20;99.90
45535;DHT22;35892;48.798;9.698;2022-12-05T04:14:57;4.10;99.90
45535;DHT22;35892;48.798;9.698;2022-12-05T04:17:33;4.20;99.90
45535;DHT22;35892;48.798;9.698;2022-12-05T04:22:52;4.10;99.90
45535;DHT22;35892;48.798;9.698;2022-12-05T04:25:23;4.20;99.90
45535;DHT22;35892;48.798;9.698;2022-12-05T04:28:31;4.20;99.90
45535;DHT22;35892;48.798;9.698;2022-12-05T04:33:47;4.20;99.90
45535;DHT22;35892;48.798;9.698;2022-12-05T04:36:35;4.20;99.90
45535;DHT22;35892;48.798;9.698;2022-12-05T04:39:11;4.20;99.90
45535;DHT22;35892;48.798;9.698;2022-12-05T04:42:10;4.20;99.90
45535;DHT22;35892;48.798;9.698;2022-12-05T04:44:45;4.20;99.90
45535;DHT22;35892;48.798;9.698;2022-12-05T04:47:16;4.10;99.90
45535;DHT22;35892;48.798;9.698;2022-12-05T04:49:47;4.20;99.90
45535;DHT22;35892;48.798;9.698;2022-12-05T04:52:22;4.20;99.90
45535;DHT22;35892;48.798;9.698;2022-12-05T04:55:18;4.20;99.90
45535;DHT22;35892;48.798;9.698;2022-12-05T05:00:20;4.10;99.90
45535;DHT22;35892;48.798;9.698;2022-12-05T05:02:59;4.10;99.90
45535;DHT22;35892;48.798;9.698;2022-12-05T05:05:27;4.10;99.90
45535;DHT22;35892;48.798;9.698;2022-12-05T05:07:56;4.10;99.90
45535;DHT22;35892;48.798;9.698;2022-12-05T05:10:49;4.10;99.90
45535;DHT22;35892;48.798;9.698;2022-12-05T05:13:17;4.20;99.90
45535;DHT22;35892;48.798;9.698;2022-12-05T05:15:44;4.20;99.90
45535;DHT22;35892;48.798;9.698;2022-12-05T05:18:13;4.20;99.90
45535;DHT22;35892;48.798;9.698;2022-12-05T05:20:42;4.10;99.90
45535;DHT22;35892;48.798;9.698;2022-12-05T05:23:09;4.20;99.90
45535;DHT22;35892;48.798;9.698;2022-12-05T05:25:35;4.20;99.90
45535;DHT22;35892;48.798;9.698;2022-12-05T05:28:05;4.10;99.90
45535;DHT22;35892;48.798;9.698;2022-12-05T05:30:33;4.20;99.90
45535;DHT22;35892;48.798;9.698;2022-12-05T05:33:03;4.20;99.90
45535;DHT22;35892;48.798;9.698;2022-12-05T05:35:29;4.20;99.90
45535;DHT22;35892;48.798;9.698;2022-12-05T05:37:56;4.20;99.90
45535;DHT22;35892;48.798;9.698;2022-12-05T05:40:25;4.30;99.90
45535;DHT22;35892;48.798;9.698;2022-12-05T05:42:54;4.20;99.90
45535;DHT22;35892;48.798;9.698;2022-12-05T05:45:24;4.20;99.90
45535;DHT22;35892;48.798;9.698;2022-12-05T05:47:53;4.20;99.90
45535;DHT22;35892;48.798;9.698;2022-12-05T05:50:22;4.30;99.90
45535;DHT22;35892;48.798;9.698;2022-12-05T05:52:51;4.20;99.90
45535;DHT22;35892;48.798;9.698;2022-12-05T05:55:18;4.30;99.90
45535;DHT22;35892;48.798;9.698;2022-12-05T05:57:45;4.30;99.90
45535;DHT22;35892;48.798;9.698;2022-12-05T06:00:15;4.30;99.90
45535;DHT22;35892;48.798;9.698;2022-12-05T06:02:44;4.30;99.90
45535;DHT22;35892;48.798;9.698;2022-12-05T06:05:15;4.40;99.90
45535;DHT22;35892;48.798;9.698;2022-12-05T06:07:42;4.40;99.90
45535;DHT22;35892;48.798;9.698;2022-12-05T06:10:11;4.40;99.90
45535;DHT22;35892;48.798;9.698;2022-12-05T06:12:42;4.30;99.90
45535;DHT22;35892;48.798;9.698;2022-12-05T06:15:09;4.30;99.90
45535;DHT22;35892;48.798;9.698;2022-12-05T06:17:41;4.30;99.90
45535;DHT22;35892;48.798;9.698;2022-12-05T06:20:10;4.20;99.90
45535;DHT22;35892;48.798;9.698;2022-12-05T06:22:42;4.20;99.90
45535;DHT22;35892;48.798;9.698;2022-12-05T06:25:11;4.30;99.90
45535;DHT22;35892;48.798;9.698;2022-12-05T06:27:38;4.30;99.90
45535;DHT22;35892;48.798;9.698;2022-12-05T06:30:08;4.20;99.90
45535;DHT22;35892;48.798;9.698;2022-12-05T06:32:37;4.20;99.90
45535;DHT22;35892;48.798;9.698;2022-12-05T06:35:06;4.20;99.90
45535;DHT22;35892;48.798;9.698;2022-12-05T06:37:44;4.30;99.90
45535;DHT22;35892;48.798;9.698;2022-12-05T06:40:15;4.30;99.90
45535;DHT22;35892;48.798;9.698;2022-12-05T06:42:42;4.30;99.90
45535;DHT22;35892;48.798;9.698;2022-12-05T06:45:12;4.30;99.90
45535;DHT22;35892;48.798;9.698;2022-12-05T06:47:41;4.30;99.90
45535;DHT22;35892;48.798;9.698;2022-12-05T06:50:13;4.30;99.90
45535;DHT22;35892;48.798;9.698;2022-12-05T06:52:39;4.30;99.90
45535;DHT22;35892;48.798;9.698;2022-12-05T06:55:08;4.30;99.90
45535;DHT22;35892;48.798;9.698;2022-12-05T06:57:38;4.30;99.90
45535;DHT22;35892;48.798;9.698;2022-12-05T07:00:08;4.30;99.90
45535;DHT22;35892;48.798;9.698;2022-12-05T07:02:56;4.30;99.90
45535;DHT22;35892;48.798;9.698;2022-12-05T07:05:23;4.30;99.90
45535;DHT22;35892;48.798;9.698;2022-12-05T07:07:52;4.30;99.90
45535;DHT22;35892;48.798;9.698;2022-12-05T07:10:18;4.40;99.90
45535;DHT22;35892;48.798;9.698;2022-12-05T07:12:45;4.40;99.90
45535;DHT22;35892;48.798;9.698;2022-12-05T07:15:14;4.40;99.90
45535;DHT22;35892;48.798;9.698;2022-12-05T07:17:43;4.40;99.90
45535;DHT22;35892;48.798;9.698;2022-12-05T07:20:10;4.40;99.90
45535;DHT22;35892;48.798;9.698;2022-12-05T07:22:38;4.40;99.90
45535;DHT22;35892;48.798;9.698;2022-12-05T07:25:05;4.40;99.90
45535;DHT22;35892;48.798;9.698;2022-12-05T07:27:32;4.40;99.90
45535;DHT22;35892;48.798;9.698;2022-12-05T07:29:59;4.40;99.90
45535;DHT22;35892;48.798;9.698;2022-12-05T07:32:31;4.40;99.90
45535;DHT22;35892;48.798;9.698;2022-12-05T07:34:59;4.40;99.90
45535;DHT22;35892;48.798;9.698;2022-12-05T07:37:25;4.40;99.90
45535;DHT22;35892;48.798;9.698;2022-12-05T07:39:54;4.40;99.90
45535;DHT22;35892;48.798;9.698;2022-12-05T07:42:21;4.50;99.90
45535;DHT22;35892;48.798;9.698;2022-12-05T07:44:51;4.50;99.90
45535;DHT22;35892;48.798;9.698;2022-12-05T07:47:22;4.60;99.90
45535;DHT22;35892;48.798;9.698;2022-12-05T07:49:51;4.60;99.90
45535;DHT22;35892;48.798;9.698;2022-12-05T07:52:18;4.70;99.90
45535;DHT22;35892;48.798;9.698;2022-12-05T07:54:47;4.80;99.90
45535;DHT22;35892;48.798;9.698;2022-12-05T07:57:16;4.80;99.90
45535;DHT22;35892;48.798;9.698;2022-12-05T07:59:48;4.80;99.90
45535;DHT22;35892;48.798;9.698;2022-12-05T08:02:14;4.80;99.90
45535;DHT22;35892;48.798;9.698;2022-12-05T08:04:41;4.80;99.90
45535;DHT22;35892;48.798;9.698;2022-12-05T08:07:13;4.80;99.90
45535;DHT22;35892;48.798;9.698;2022-12-05T08:09:40;5.00;99.90
45535;DHT22;35892;48.798;9.698;2022-12-05T08:12:07;5.10;99.90
45535;DHT22;35892;48.798;9.698;2022-12-05T08:14:34;5.30;99.90
45535;DHT22;35892;48.798;9.698;2022-12-05T08:17:01;5.40;99.90
45535;DHT22;35892;48.798;9.698;2022-12-05T08:19:28;5.50;99.90
45535;DHT22;35892;48.798;9.698;2022-12-05T08:22:00;5.50;99.90
45535;DHT22;35892;48.798;9.698;2022-12-05T08:24:29;5.60;99.90
45535;DHT22;35892;48.798;9.698;2022-12-05T08:26:56;5.60;99.90
45535;DHT22;35892;48.798;9.698;2022-12-05T08:29:25;5.60;99.90
45535;DHT22;35892;48.798;9.698;2022-12-05T08:31:52;5.60;99.90
45535;DHT22;35892;48.798;9.698;2022-12-05T08:34:19;5.70;99.90
45535;DHT22;35892;48.798;9.698;2022-12-05T08:36:49;5.70;99.90
45535;DHT22;35892;48.798;9.698;2022-12-05T08:39:18;5.70;99.90
45535;DHT22;35892;48.798;9.698;2022-12-05T08:41:46;5.80;99.90
45535;DHT22;35892;48.798;9.698;2022-12-05T08:44:16;5.80;99.90
45535;DHT22;35892;48.798;9.698;2022-12-05T08:46:46;5.90;99.90
45535;DHT22;35892;48.798;9.698;2022-12-05T08:49:18;5.90;99.90
45535;DHT22;35892;48.798;9.698;2022-12-05T08:51:49;5.90;99.90
45535;DHT22;35892;48.798;9.698;2022-12-05T08:54:16;5.90;99.90
45535;DHT22;35892;48.798;9.698;2022-12-05T08:56:43;5.90;99.90
45535;DHT22;35892;48.798;9.698;2022-12-05T08:59:12;5.80;99.90
45535;DHT22;35892;48.798;9.698;2022-12-05T09:01:41;5.80;99.90
45535;DHT22;35892;48.798;9.698;2022-12-05T09:04:08;5.80;99.90
45535;DHT22;35892;48.798;9.698;2022-12-05T09:06:39;5.80;99.90
45535;DHT22;35892;48.798;9.698;2022-12-05T09:09:10;5.90;99.90
45535;DHT22;35892;48.798;9.698;2022-12-05T09:11:43;6.00;99.90
45535;DHT22;35892;48.798;9.698;2022-12-05T09:14:17;6.10;99.90
45535;DHT22;35892;48.798;9.698;2022-12-05T09:16:48;6.20;99.90
45535;DHT22;35892;48.798;9.698;2022-12-05T09:19:19;6.30;99.90
45535;DHT22;35892;48.798;9.698;2022-12-05T09:21:52;6.30;99.90
45535;DHT22;35892;48.798;9.698;2022-12-05T09:24:20;6.40;99.90
45535;DHT22;35892;48.798;9.698;2022-12-05T09:26:51;6.40;99.90
45535;DHT22;35892;48.798;9.698;2022-12-05T09:29:20;6.30;99.90
45535;DHT22;35892;48.798;9.698;2022-12-05T09:31:47;6.30;99.90
45535;DHT22;35892;48.798;9.698;2022-12-05T09:34:17;6.40;99.90
45535;DHT22;35892;48.798;9.698;2022-12-05T09:36:48;6.30;99.90
45535;DHT22;35892;48.798;9.698;2022-12-05T09:39:29;6.40;99.90
45535;DHT22;35892;48.798;9.698;2022-12-05T09:42:05;6.40;99.90
45535;DHT22;35892;48.798;9.698;2022-12-05T09:53:01;6.30;99.90
45535;DHT22;35892;48.798;9.698;2022-12-05T09:58:24;6.50;99.90
45535;DHT22;35892;48.798;9.698;2022-12-05T10:03:45;6.70;99.90
45535;DHT22;35892;48.798;9.698;2022-12-05T10:06:23;6.80;99.90
45535;DHT22;35892;48.798;9.698;2022-12-05T10:09:20;6.80;99.90
45535;DHT22;35892;48.798;9.698;2022-12-05T10:15:02;6.70;99.90
45535;DHT22;35892;48.798;9.698;2022-12-05T10:17:37;6.80;99.90
45535;DHT22;35892;48.798;9.698;2022-12-05T10:20:20;6.80;99.90
45535;DHT22;35892;48.798;9.698;2022-12-05T10:23:02;6.90;99.90
45535;DHT22;35892;48.798;9.698;2022-12-05T10:25:31;6.90;99.90
45535;DHT22;35892;48.798;9.698;2022-12-05T10:28:03;6.90;99.90
45535;DHT22;35892;48.798;9.698;2022-12-05T10:30:33;6.90;99.90
45535;DHT22;35892;48.798;9.698;2022-12-05T10:33:10;6.70;99.90
45535;DHT22;35892;48.798;9.698;2022-12-05T10:35:40;6.60;99.90
45535;DHT22;35892;48.798;9.698;2022-12-05T10:40:53;6.60;99.90
45535;DHT22;35892;48.798;9.698;2022-12-05T10:43:28;6.60;99.90
45535;DHT22;35892;48.798;9.698;2022-12-05T10:45:56;6.60;99.90
45535;DHT22;35892;48.798;9.698;2022-12-05T10:48:26;6.50;99.90
45535;DHT22;35892;48.798;9.698;2022-12-05T10:50:55;6.50;99.90
45535;DHT22;35892;48.798;9.698;2022-12-05T10:55:54;6.60;99.90
45535;DHT22;35892;48.798;9.698;2022-12-05T10:58:53;6.70;99.90
45535;DHT22;35892;48.798;9.698;2022-12-05T11:01:22;6.80;99.90
45535;DHT22;35892;48.798;9.698;2022-12-05T11:04:07;6.90;99.90
45535;DHT22;35892;48.798;9.698;2022-12-05T11:09:29;6.90;99.90
45535;DHT22;35892;48.798;9.698;2022-12-05T11:12:19;6.90;99.90
45535;DHT22;35892;48.798;9.698;2022-12-05T11:17:37;7.10;99.90
45535;DHT22;35892;48.798;9.698;2022-12-05T11:22:48;7.30;99.90
45535;DHT22;35892;48.798;9.698;2022-12-05T11:25:24;7.30;99.90
45535;DHT22;35892;48.798;9.698;2022-12-05T11:27:57;7.30;99.90
45535;DHT22;35892;48.798;9.698;2022-12-05T11:30:28;7.40;99.90
45535;DHT22;35892;48.798;9.698;2022-12-05T11:33:19;7.40;99.90
45535;DHT22;35892;48.798;9.698;2022-12-05T11:35:49;7.30;99.90
45535;DHT22;35892;48.798;9.698;2022-12-05T11:38:18;7.30;99.90
45535;DHT22;35892;48.798;9.698;2022-12-05T11:51:41;7.30;99.90
45535;DHT22;35892;48.798;9.698;2022-12-05T11:56:58;7.40;99.90
45535;DHT22;35892;48.798;9.698;2022-12-05T12:08:26;7.40;99.90
45535;DHT22;35892;48.798;9.698;2022-12-05T12:11:13;7.40;99.90
45535;DHT22;35892;48.798;9.698;2022-12-05T12:22:30;7.40;99.90
45535;DHT22;35892;48.798;9.698;2022-12-05T12:25:17;7.50;99.90
45535;DHT22;35892;48.798;9.698;2022-12-05T12:30:40;7.60;99.90
45535;DHT22;35892;48.798;9.698;2022-12-05T12:33:45;7.60;99.90
45535;DHT22;35892;48.798;9.698;2022-12-05T12:36:37;7.60;99.90
45535;DHT22;35892;48.798;9.698;2022-12-05T12:50:38;8.10;99.90
45535;DHT22;35892;48.798;9.698;2022-12-05T12:58:50;8.10;99.90
45535;DHT22;35892;48.798;9.698;2022-12-05T13:01:34;8.10;99.90
45535;DHT22;35892;48.798;9.698;2022-12-05T13:04:16;8.10;99.90
45535;DHT22;35892;48.798;9.698;2022-12-05T13:06:55;8.10;99.90
45535;DHT22;35892;48.798;9.698;2022-12-05T13:09:33;8.10;99.90
45535;DHT22;35892;48.798;9.698;2022-12-05T13:12:13;8.10;99.90
45535;DHT22;35892;48.798;9.698;2022-12-05T13:14:51;8.10;99.90
45535;DHT22;35892;48.798;9.698;2022-12-05T13:17:23;8.10;99.90
45535;DHT22;35892;48.798;9.698;2022-12-05T13:19:51;8.00;99.90
45535;DHT22;35892;48.798;9.698;2022-12-05T13:22:21;8.00;99.90
45535;DHT22;35892;48.798;9.698;2022-12-05T13:24:52;8.10;99.90
45535;DHT22;35892;48.798;9.698;2022-12-05T13:27:27;8.20;99.90
45535;DHT22;35892;48.798;9.698;2022-12-05T13:30:00;8.40;99.90
45535;DHT22;35892;48.798;9.698;2022-12-05T13:32:36;8.40;99.90
45535;DHT22;35892;48.798;9.698;2022-12-05T13:37:33;8.60;99.90
45535;DHT22;35892;48.798;9.698;2022-12-05T13:43:08;8.70;99.90
45535;DHT22;35892;48.798;9.698;2022-12-05T13:45:36;8.80;99.90
45535;DHT22;35892;48.798;9.698;2022-12-05T13:50:44;8.70;99.90
45535;DHT22;35892;48.798;9.698;2022-12-05T13:53:28;8.60;99.90
45535;DHT22;35892;48.798;9.698;2022-12-05T13:56:01;8.50;99.90
45535;DHT22;35892;48.798;9.698;2022-12-05T14:03:56;8.10;99.90
45535;DHT22;35892;48.798;9.698;2022-12-05T14:17:29;8.10;99.90
45535;DHT22;35892;48.798;9.698;2022-12-05T14:22:57;8.20;99.90
45535;DHT22;35892;48.798;9.698;2022-12-05T14:25:32;8.20;99.90
45535;DHT22;35892;48.798;9.698;2022-12-05T14:28:23;8.10;99.90
45535;DHT22;35892;48.798;9.698;2022-12-05T14:31:20;8.00;99.90
45535;DHT22;35892;48.798;9.698;2022-12-05T14:34:27;7.90;99.90
45535;DHT22;35892;48.798;9.698;2022-12-05T14:39:55;7.90;99.90
45535;DHT22;35892;48.798;9.698;2022-12-05T14:50:54;7.70;99.90
45535;DHT22;35892;48.798;9.698;2022-12-05T14:53:38;7.60;99.90
45535;DHT22;35892;48.798;9.698;2022-12-05T14:56:15;7.60;99.90
45535;DHT22;35892;48.798;9.698;2022-12-05T15:01:31;7.70;99.90
45535;DHT22;35892;48.798;9.698;2022-12-05T15:10:01;7.40;99.90
45535;DHT22;35892;48.798;9.698;2022-12-05T15:12:53;7.30;99.90
45535;DHT22;35892;48.798;9.698;2022-12-05T15:18:29;7.00;99.90
45535;DHT22;35892;48.798;9.698;2022-12-05T15:22:01;6.90;99.90
45535;DHT22;35892;48.798;9.698;2022-12-05T15:24:12;6.80;99.90
45535;DHT22;35892;48.798;9.698;2022-12-05T15:26:43;6.70;99.90
45535;DHT22;35892;48.798;9.698;2022-12-05T15:29:16;6.70;99.90
45535;DHT22;35892;48.798;9.698;2022-12-05T15:32:05;6.70;99.90
45535;DHT22;35892;48.798;9.698;2022-12-05T15:34:53;6.70;99.90
45535;DHT22;35892;48.798;9.698;2022-12-05T15:40:08;6.50;99.90
45535;DHT22;35892;48.798;9.698;2022-12-05T15:47:49;6.40;99.90
45535;DHT22;35892;48.798;9.698;2022-12-05T15:50:35;6.30;99.90
45535;DHT22;35892;48.798;9.698;2022-12-05T15:55:54;6.10;99.90
45535;DHT22;35892;48.798;9.698;2022-12-05T15:58:26;5.90;99.90
45535;DHT22;35892;48.798;9.698;2022-12-05T16:01:02;5.80;99.90
45535;DHT22;35892;48.798;9.698;2022-12-05T16:03:40;5.70;99.90
45535;DHT22;35892;48.798;9.698;2022-12-05T16:06:34;5.60;99.90
45535;DHT22;35892;48.798;9.698;2022-12-05T16:09:03;5.60;99.90
45535;DHT22;35892;48.798;9.698;2022-12-05T16:11:36;5.60;99.90
45535;DHT22;35892;48.798;9.698;2022-12-05T16:14:05;5.60;99.90
45535;DHT22;35892;48.798;9.698;2022-12-05T16:16:36;5.50;99.90
45535;DHT22;35892;48.798;9.698;2022-12-05T16:19:21;5.50;99.90
45535;DHT22;35892;48.798;9.698;2022-12-05T16:22:22;5.50;99.90
45535;DHT22;35892;48.798;9.698;2022-12-05T16:24:59;5.60;99.90
45535;DHT22;35892;48.798;9.698;2022-12-05T16:27:35;5.60;99.90
45535;DHT22;35892;48.798;9.698;2022-12-05T16:32:39;5.50;99.90
45535;DHT22;35892;48.798;9.698;2022-12-05T16:38:22;5.30;99.90
45535;DHT22;35892;48.798;9.698;2022-12-05T16:40:55;5.20;99.90
45535;DHT22;35892;48.798;9.698;2022-12-05T16:43:25;5.20;99.90
45535;DHT22;35892;48.798;9.698;2022-12-05T16:45:57;5.20;99.90
45535;DHT22;35892;48.798;9.698;2022-12-05T16:48:26;5.20;99.90
45535;DHT22;35892;48.798;9.698;2022-12-05T16:53:46;5.20;99.90
45535;DHT22;35892;48.798;9.698;2022-12-05T16:56:17;5.30;99.90
45535;DHT22;35892;48.798;9.698;2022-12-05T16:58:46;5.30;99.90
45535;DHT22;35892;48.798;9.698;2022-12-05T17:01:19;5.30;99.90
45535;DHT22;35892;48.798;9.698;2022-12-05T17:03:46;5.20;99.90
45535;DHT22;35892;48.798;9.698;2022-12-05T17:06:18;5.20;99.90
45535;DHT22;35892;48.798;9.698;2022-12-05T17:08:46;5.20;99.90
45535;DHT22;35892;48.798;9.698;2022-12-05T17:11:31;5.10;99.90
45535;DHT22;35892;48.798;9.698;2022-12-05T17:13:59;5.00;99.90
45535;DHT22;35892;48.798;9.698;2022-12-05T17:16:27;5.00;99.90
45535;DHT22;35892;48.798;9.698;2022-12-05T17:18:54;4.90;99.90
45535;DHT22;35892;48.798;9.698;2022-12-05T17:21:25;4.80;99.90
45535;DHT22;35892;48.798;9.698;2022-12-05T17:23:54;4.70;99.90
45535;DHT22;35892;48.798;9.698;2022-12-05T17:26:23;4.60;99.90
45535;DHT22;35892;48.798;9.698;2022-12-05T17:28:50;4.60;99.90
45535;DHT22;35892;48.798;9.698;2022-12-05T17:31:19;4.50;99.90
45535;DHT22;35892;48.798;9.698;2022-12-05T17:33:50;4.40;99.90
45535;DHT22;35892;48.798;9.698;2022-12-05T17:36:17;4.40;99.90
45535;DHT22;35892;48.798;9.698;2022-12-05T17:38:48;4.40;99.90
45535;DHT22;35892;48.798;9.698;2022-12-05T17:41:20;4.30;99.90
45535;DHT22;35892;48.798;9.698;2022-12-05T17:43:47;4.20;99.90
45535;DHT22;35892;48.798;9.698;2022-12-05T17:46:17;4.20;99.90
45535;DHT22;35892;48.798;9.698;2022-12-05T17:48:45;4.20;99.90
45535;DHT22;35892;48.798;9.698;2022-12-05T17:51:12;4.10;99.90
45535;DHT22;35892;48.798;9.698;2022-12-05T17:53:41;4.10;99.90
45535;DHT22;35892;48.798;9.698;2022-12-05T17:56:07;4.00;99.90
45535;DHT22;35892;48.798;9.698;2022-12-05T17:58:34;4.00;99.90
45535;DHT22;35892;48.798;9.698;2022-12-05T18:01:04;3.90;99.90
45535;DHT22;35892;48.798;9.698;2022-12-05T18:03:31;3.90;99.90
45535;DHT22;35892;48.798;9.698;2022-12-05T18:05:58;3.80;99.90
45535;DHT22;35892;48.798;9.698;2022-12-05T18:08:25;3.70;99.90
45535;DHT22;35892;48.798;9.698;2022-12-05T18:10:55;3.70;99.90
45535;DHT22;35892;48.798;9.698;2022-12-05T18:13:26;3.60;99.90
45535;DHT22;35892;48.798;9.698;2022-12-05T18:15:56;3.60;99.90
45535;DHT22;35892;48.798;9.698;2022-12-05T18:18:26;3.70;99.90
45535;DHT22;35892;48.798;9.698;2022-12-05T18:21:09;3.60;99.90
45535;DHT22;35892;48.798;9.698;2022-12-05T18:23:41;3.60;99.90
45535;DHT22;35892;48.798;9.698;2022-12-05T18:26:09;3.50;99.90
45535;DHT22;35892;48.798;9.698;2022-12-05T18:28:37;3.50;99.90
45535;DHT22;35892;48.798;9.698;2022-12-05T18:31:11;3.60;99.90
45535;DHT22;35892;48.798;9.698;2022-12-05T18:33:44;3.60;99.90
45535;DHT22;35892;48.798;9.698;2022-12-05T18:36:18;3.60;99.90
45535;DHT22;35892;48.798;9.698;2022-12-05T18:38:50;3.50;99.90
45535;DHT22;35892;48.798;9.698;2022-12-05T18:41:17;3.50;99.90
45535;DHT22;35892;48.798;9.698;2022-12-05T18:43:44;3.60;99.90
45535;DHT22;35892;48.798;9.698;2022-12-05T18:46:14;3.60;99.90
45535;DHT22;35892;48.798;9.698;2022-12-05T18:48:43;3.60;99.90
45535;DHT22;35892;48.798;9.698;2022-12-05T18:53:42;3.70;99.90
45535;DHT22;35892;48.798;9.698;2022-12-05T18:56:19;3.70;99.90
45535;DHT22;35892;48.798;9.698;2022-12-05T18:58:57;3.80;99.90
45535;DHT22;35892;48.798;9.698;2022-12-05T19:01:25;3.90;99.90
45535;DHT22;35892;48.798;9.698;2022-12-05T19:03:52;4.00;99.90
45535;DHT22;35892;48.798;9.698;2022-12-05T19:06:21;4.00;99.90
45535;DHT22;35892;48.798;9.698;2022-12-05T19:08:52;4.00;99.90
45535;DHT22;35892;48.798;9.698;2022-12-05T19:11:21;4.00;99.90
45535;DHT22;35892;48.798;9.698;2022-12-05T19:13:56;4.10;99.90
45535;DHT22;35892;48.798;9.698;2022-12-05T19:16:24;4.00;99.90
45535;DHT22;35892;48.798;9.698;2022-12-05T19:18:55;4.00;99.90
45535;DHT22;35892;48.798;9.698;2022-12-05T19:21:23;4.00;99.90
45535;DHT22;35892;48.798;9.698;2022-12-05T19:23:51;4.00;99.90
45535;DHT22;35892;48.798;9.698;2022-12-05T19:26:18;4.00;99.90
45535;DHT22;35892;48.798;9.698;2022-12-05T19:28:48;4.00;99.90
45535;DHT22;35892;48.798;9.698;2022-12-05T19:31:19;4.00;99.90
45535;DHT22;35892;48.798;9.698;2022-12-05T19:33:49;4.00;99.90
45535;DHT22;35892;48.798;9.698;2022-12-05T19:36:24;4.00;99.90